Pagina principală
METAR-TAF:

METAR-TAF

Aeroporturi :

Chanute, Kansas, Statele Unite ale Americii

Latitudine: 37-40-13N, longitudine: 095-29-03W, elevație: 305 m

Observații meteo curente

Raportul a fost făcut în urmă cu 51 de minute, la 01:52 UTC
Vânt 5 kt de la Nord/Nord-vest
Temperatură 21°C
Umiditate 64%
Presiune 1009 hPa
Vizibilitate: 16.1 km
Cer senin

METAR: KCNU 220152Z AUTO 34005KT 10SM CLR 21/14 A2980 RMK AO2 SLP080 T02060139

Ora: 21:43 (02:43 UTC)

Prognoză

Raportul a fost făcut în urmă cu 1 oră și 45 de minute, la 00:58 UTC
Prognoză valabilă de la 22 ora 01 UTC la 22 ora 24 UTC
Vânt 9 kt de la Nord
Vizibilitate: 10 km
Cer senin

TAF: KCNU 220058Z 2201/2224 35009KT P6SM SKC

Observații și prognoze meteo pentru peste 4.000 de aeroporturi (rapoarte METAR și TAF).

Stațiile disponibile sunt reprezentate pe hartă prin puncte galbene și roșii.

Țineți indicatorul mouse-ului pe punctul dorit pentru a vedea denumirea stației.

Apoi, faceți clic pentru a vedea observațiile și prognozele meteorologice.

Pentru a schimba harta: Pentru mărire, faceți clic pe butoanele verzi cu cruce neagră; pentru micșorare, pe butonul verde cu o liniuță; pentru hărți învecinate, pe săgețile verzi.


METAR-TAF: